createdAt,value
2023-04-11T00:01:10.022Z,0.38
2023-04-11T00:03:39.533Z,0.30
2023-04-11T00:06:06.407Z,0.25
2023-04-11T00:08:32.905Z,0.40
2023-04-11T00:10:59.449Z,0.50
2023-04-11T00:13:26.633Z,0.52
2023-04-11T00:15:55.634Z,0.20
2023-04-11T00:18:22.900Z,0.38
2023-04-11T00:20:49.584Z,0.30
2023-04-11T00:23:16.255Z,0.17
2023-04-11T00:25:42.963Z,0.22
2023-04-11T00:28:09.822Z,0.30
2023-04-11T00:30:36.348Z,0.13
2023-04-11T00:33:04.057Z,0.30
2023-04-11T00:35:34.585Z,0.30
2023-04-11T00:38:02.330Z,0.20
2023-04-11T00:40:29.085Z,0.20
2023-04-11T00:42:58.800Z,0.10
2023-04-11T00:45:26.014Z,0.15
2023-04-11T00:47:53.065Z,0.22
2023-04-11T00:50:22.056Z,0.10
2023-04-11T00:52:50.929Z,0.38
2023-04-11T00:55:17.567Z,0.30
2023-04-11T00:57:44.717Z,0.30
2023-04-11T01:00:11.992Z,0.30
2023-04-11T01:02:43.293Z,0.22
2023-04-11T01:05:11.139Z,0.30
2023-04-11T01:07:38.206Z,0.13
2023-04-11T01:10:05.972Z,0.20
2023-04-11T01:12:32.942Z,0.20
2023-04-11T01:14:59.604Z,0.20
2023-04-11T01:17:27.257Z,0.35
2023-04-11T01:19:53.899Z,0.50
2023-04-11T01:22:23.164Z,0.30
2023-04-11T01:24:49.916Z,0.20
2023-04-11T01:27:16.535Z,0.20
2023-04-11T01:29:43.648Z,0.45
2023-04-11T01:32:10.389Z,0.25
2023-04-11T01:34:39.932Z,0.10
2023-04-11T01:37:06.718Z,0.32
2023-04-11T01:39:33.353Z,0.50
2023-04-11T01:42:01.013Z,0.28
2023-04-11T01:44:27.962Z,0.20
2023-04-11T01:46:55.381Z,0.30
2023-04-11T01:49:23.747Z,0.63
2023-04-11T01:51:50.395Z,0.52
2023-04-11T01:54:17.100Z,0.10
2023-04-11T01:56:43.720Z,0.40
2023-04-11T01:59:10.570Z,0.30
2023-04-11T02:01:37.281Z,0.20
2023-04-11T02:04:04.116Z,0.40
2023-04-11T02:06:32.156Z,0.20
2023-04-11T02:08:58.767Z,0.10
2023-04-11T02:11:25.464Z,0.20
2023-04-11T02:13:52.917Z,0.10
2023-04-11T02:16:20.734Z,0.20
2023-04-11T02:18:47.484Z,0.40
2023-04-11T02:21:14.072Z,0.38
2023-04-11T02:23:40.583Z,0.30
2023-04-11T02:26:07.222Z,0.28
2023-04-11T02:28:33.770Z,0.30
2023-04-11T02:31:00.435Z,0.20
2023-04-11T02:33:27.095Z,0.13
2023-04-11T02:35:53.781Z,0.10
2023-04-11T02:38:21.083Z,0.20
2023-04-11T02:40:47.619Z,0.10
2023-04-11T02:43:14.725Z,0.20
2023-04-11T02:45:41.350Z,0.20
2023-04-11T02:48:08.767Z,0.43
2023-04-11T02:50:41.397Z,0.20
2023-04-11T02:53:08.178Z,0.20
2023-04-11T02:55:37.797Z,0.20
2023-04-11T02:58:04.602Z,0.50
2023-04-11T03:00:31.400Z,0.38
2023-04-11T03:03:06.555Z,0.40
2023-04-11T03:05:38.969Z,0.40
2023-04-11T03:08:08.993Z,0.40
2023-04-11T03:10:38.185Z,0.30
2023-04-11T03:13:05.739Z,0.60
2023-04-11T03:15:32.644Z,0.40
2023-04-11T03:18:04.206Z,0.43
2023-04-11T03:20:31.580Z,0.28
2023-04-11T03:22:58.206Z,0.50
2023-04-11T03:25:25.264Z,0.50
2023-04-11T03:27:52.823Z,0.57
2023-04-11T03:30:19.379Z,1.35
2023-04-11T03:32:47.616Z,0.50
2023-04-11T03:35:14.954Z,0.60
2023-04-11T03:40:12.464Z,0.60
2023-04-11T03:42:43.803Z,1.20
2023-04-11T03:45:15.894Z,0.50
2023-04-11T03:47:42.774Z,0.30
2023-04-11T03:50:11.828Z,0.30
2023-04-11T03:52:43.881Z,0.30
2023-04-11T03:55:14.109Z,0.70
2023-04-11T03:57:40.944Z,0.28
2023-04-11T04:00:08.309Z,0.38
2023-04-11T04:02:41.782Z,0.40
2023-04-11T04:05:11.923Z,0.50
2023-04-11T04:07:40.084Z,0.40
2023-04-11T04:10:17.066Z,0.22
2023-04-11T04:12:48.623Z,0.60
2023-04-11T04:15:19.109Z,0.30
2023-04-11T04:17:48.298Z,0.50
2023-04-11T04:20:21.874Z,0.40
2023-04-11T04:22:54.441Z,0.40
2023-04-11T04:25:30.747Z,0.40
2023-04-11T04:28:00.912Z,0.30
2023-04-11T04:30:38.162Z,0.28
2023-04-11T04:33:12.400Z,0.32
2023-04-11T04:35:44.304Z,0.65
2023-04-11T04:38:17.938Z,0.75
2023-04-11T04:40:55.181Z,0.40
2023-04-11T04:43:24.523Z,0.40
2023-04-11T04:46:05.715Z,0.30
2023-04-11T04:48:40.115Z,0.50
2023-04-11T04:51:07.663Z,0.45
2023-04-11T04:53:38.759Z,0.88
2023-04-11T04:56:07.696Z,0.40
2023-04-11T04:58:38.406Z,0.50
2023-04-11T05:01:09.315Z,0.47
2023-04-11T05:03:38.745Z,0.40
2023-04-11T05:06:10.450Z,0.35
2023-04-11T05:08:38.727Z,0.50
2023-04-11T05:11:07.332Z,0.50
2023-04-11T05:13:35.548Z,0.50
2023-04-11T05:16:04.388Z,0.50
2023-04-11T05:18:31.204Z,0.90
2023-04-11T05:20:58.203Z,0.30
2023-04-11T05:23:30.770Z,0.40
2023-04-11T05:26:01.258Z,0.60
2023-04-11T05:28:31.169Z,0.57
2023-04-11T05:30:58.198Z,0.43
2023-04-11T05:33:24.874Z,1.05
2023-04-11T05:35:51.965Z,0.65
2023-04-11T05:38:19.221Z,0.85
2023-04-11T05:40:45.992Z,0.45
2023-04-11T05:43:15.459Z,0.60
2023-04-11T05:45:42.699Z,0.68
2023-04-11T05:48:09.487Z,0.30
2023-04-11T05:50:37.325Z,0.65
2023-04-11T05:53:04.099Z,0.47
2023-04-11T05:55:31.566Z,0.65
2023-04-11T05:58:00.203Z,0.47
2023-04-11T06:00:31.276Z,0.63
2023-04-11T06:02:58.830Z,0.30
2023-04-11T06:05:26.694Z,0.88
2023-04-11T06:07:53.493Z,0.75
2023-04-11T06:10:20.427Z,0.43
2023-04-11T06:12:47.002Z,0.50
2023-04-11T06:15:13.988Z,0.65
2023-04-11T06:17:40.630Z,0.60
2023-04-11T06:20:07.723Z,0.40
2023-04-11T06:22:34.497Z,0.30
2023-04-11T06:25:01.035Z,1.13
2023-04-11T06:27:27.973Z,0.77
2023-04-11T06:29:54.582Z,0.30
2023-04-11T06:32:21.812Z,0.55
2023-04-11T06:34:48.376Z,0.50
2023-04-11T06:37:15.113Z,0.70
2023-04-11T06:39:41.677Z,0.65
2023-04-11T06:42:08.349Z,0.38
2023-04-11T06:44:35.065Z,0.50
2023-04-11T06:47:01.971Z,0.40
2023-04-11T06:49:28.568Z,0.30
2023-04-11T06:51:55.957Z,0.50
2023-04-11T06:54:22.847Z,0.75
2023-04-11T06:56:52.145Z,0.50
2023-04-11T06:59:22.251Z,0.50
2023-04-11T07:01:49.592Z,0.40
2023-04-11T07:04:16.455Z,0.60
2023-04-11T07:06:43.159Z,0.40
2023-04-11T07:09:09.818Z,1.10
2023-04-11T07:11:38.683Z,0.50
2023-04-11T07:14:05.621Z,0.40
2023-04-11T07:16:32.638Z,0.63
2023-04-11T07:19:01.892Z,0.52
2023-04-11T07:21:28.762Z,0.73
2023-04-11T07:23:55.647Z,0.70
2023-04-11T07:26:23.851Z,0.60
2023-04-11T07:28:51.412Z,0.43
2023-04-11T07:31:21.446Z,0.52
2023-04-11T07:33:48.164Z,0.43
2023-04-11T07:36:14.899Z,0.43
2023-04-11T07:38:42.050Z,0.75
2023-04-11T07:41:09.561Z,0.50
2023-04-11T07:43:36.407Z,0.40
2023-04-11T07:46:03.584Z,0.30
2023-04-11T07:48:30.965Z,0.70
2023-04-11T07:50:57.602Z,0.68
2023-04-11T07:53:24.332Z,0.63
2023-04-11T07:55:50.973Z,0.70
2023-04-11T07:58:17.534Z,0.40
2023-04-11T08:00:44.319Z,1.15
2023-04-11T08:03:13.385Z,0.75
2023-04-11T08:05:40.353Z,0.60
2023-04-11T08:08:09.103Z,0.50
2023-04-11T08:10:35.826Z,0.40
2023-04-11T08:13:02.389Z,0.40
2023-04-11T08:15:29.047Z,0.75
2023-04-11T08:17:56.486Z,0.60
2023-04-11T08:20:24.009Z,0.47
2023-04-11T08:22:50.653Z,0.50
2023-04-11T08:25:19.778Z,0.98
2023-04-11T08:27:46.293Z,0.40
2023-04-11T08:30:13.581Z,0.60
2023-04-11T08:32:41.203Z,0.73
2023-04-11T08:35:08.151Z,0.52
2023-04-11T08:37:34.696Z,0.60
2023-04-11T08:40:03.606Z,0.40
2023-04-11T08:42:31.205Z,0.40
2023-04-11T08:45:02.353Z,0.60
2023-04-11T08:49:56.624Z,0.65
2023-04-11T08:52:23.856Z,0.70
2023-04-11T08:54:52.174Z,0.43
2023-04-11T08:57:27.672Z,0.50
2023-04-11T09:00:00.340Z,0.65
2023-04-11T09:02:27.717Z,0.40
2023-04-11T09:04:55.111Z,0.50
2023-04-11T09:07:22.098Z,0.40
2023-04-11T09:09:48.661Z,1.05
2023-04-11T09:12:15.943Z,0.40
2023-04-11T09:14:42.732Z,0.47
2023-04-11T09:17:19.643Z,0.63
2023-04-11T09:19:48.978Z,0.30
2023-04-11T09:22:16.286Z,0.40
2023-04-11T09:24:43.184Z,0.40
2023-04-11T09:27:16.901Z,0.70
2023-04-11T09:29:47.209Z,0.43
2023-04-11T09:32:32.298Z,0.50
2023-04-11T09:35:20.834Z,0.35
2023-04-11T09:37:49.100Z,0.40
2023-04-11T09:40:16.972Z,0.40
2023-04-11T09:42:44.223Z,0.30
2023-04-11T09:45:22.218Z,0.35
2023-04-11T09:47:49.789Z,0.22
2023-04-11T09:50:16.963Z,0.40
2023-04-11T09:52:44.808Z,0.20
2023-04-11T09:55:21.225Z,0.22
2023-04-11T09:57:51.244Z,0.25
2023-04-11T10:00:19.695Z,0.40
2023-04-11T10:02:49.018Z,0.28
2023-04-11T10:05:19.341Z,0.20
2023-04-11T10:07:47.469Z,0.20
2023-04-11T10:10:21.386Z,0.30
2023-04-11T10:12:48.772Z,0.13
2023-04-11T10:15:16.071Z,0.30
2023-04-11T10:17:42.803Z,0.20
2023-04-11T10:20:28.160Z,0.13
2023-04-11T10:22:58.846Z,0.15
2023-04-11T10:25:25.586Z,0.30
2023-04-11T10:28:01.384Z,0.20
2023-04-11T10:30:40.688Z,0.30
2023-04-11T10:33:14.840Z,0.20
2023-04-11T10:35:58.152Z,0.10
2023-04-11T10:38:37.122Z,0.35
2023-04-11T10:41:27.695Z,0.40
2023-04-11T10:44:12.862Z,1.42
2023-04-11T10:46:46.812Z,1.23
2023-04-11T10:49:30.752Z,0.70
2023-04-11T10:52:16.165Z,0.80
2023-04-11T10:54:43.690Z,0.88
2023-04-11T10:57:10.273Z,0.60
2023-04-11T10:59:36.933Z,0.50
2023-04-11T11:02:03.855Z,0.30
2023-04-11T11:04:35.023Z,0.38
2023-04-11T11:09:28.781Z,0.30
2023-04-11T11:12:11.751Z,0.30
2023-04-11T11:14:39.504Z,0.22
2023-04-11T11:17:07.558Z,0.13
2023-04-11T11:19:35.642Z,0.38
2023-04-11T11:22:06.214Z,0.40
2023-04-11T11:24:32.810Z,0.28
2023-04-11T11:26:59.438Z,0.10
2023-04-11T11:29:38.928Z,0.10
2023-04-11T11:32:07.281Z,0.25
2023-04-11T11:34:35.023Z,0.00
2023-04-11T11:37:04.656Z,0.30
2023-04-11T11:39:31.992Z,0.10
2023-04-11T11:41:58.766Z,0.00
2023-04-11T11:44:29.518Z,0.00
2023-04-11T11:47:15.017Z,0.10
2023-04-11T11:49:45.586Z,0.00
2023-04-11T11:52:12.647Z,0.05
2023-04-11T11:54:45.965Z,0.00
2023-04-11T11:57:19.819Z,0.00
2023-04-11T11:59:53.111Z,0.00
2023-04-11T12:02:20.587Z,0.00
2023-04-11T12:04:47.460Z,0.00
2023-04-11T12:07:14.809Z,0.10
2023-04-11T12:09:41.384Z,0.00
2023-04-11T12:12:10.968Z,0.20
2023-04-11T12:14:37.497Z,0.30
2023-04-11T12:17:04.068Z,0.30
2023-04-11T12:19:30.733Z,0.25
2023-04-11T12:21:57.342Z,0.20
2023-04-11T12:24:23.932Z,0.20
2023-04-11T12:27:05.673Z,0.40
2023-04-11T12:29:33.319Z,0.20
2023-04-11T12:31:59.934Z,0.05
2023-04-11T12:34:26.540Z,0.10
2023-04-11T12:36:53.479Z,0.20
2023-04-11T12:39:19.999Z,0.20
2023-04-11T12:41:46.538Z,0.30
2023-04-11T12:44:13.030Z,0.50
2023-04-11T12:46:39.641Z,0.40
2023-04-11T12:49:06.187Z,0.20
2023-04-11T12:51:32.799Z,0.20
2023-04-11T12:53:59.322Z,0.10
2023-04-11T12:56:26.984Z,0.10
2023-04-11T12:58:53.601Z,0.05
2023-04-11T13:01:21.212Z,0.10
2023-04-11T13:03:47.868Z,0.10
2023-04-11T13:06:14.488Z,0.20
2023-04-11T13:08:41.001Z,0.30
2023-04-11T13:11:07.655Z,0.30
2023-04-11T13:13:34.231Z,0.30
2023-04-11T13:16:00.817Z,0.30
2023-04-11T13:18:27.467Z,0.20
2023-04-11T13:20:53.992Z,0.25
2023-04-11T13:23:20.624Z,0.20
2023-04-11T13:25:47.159Z,0.40
2023-04-11T13:28:13.702Z,0.50
2023-04-11T13:30:41.125Z,0.30
2023-04-11T13:33:07.707Z,0.30
2023-04-11T13:35:34.279Z,0.30
2023-04-11T13:38:02.563Z,0.30
2023-04-11T13:40:29.217Z,0.25
2023-04-11T13:42:56.110Z,0.40
2023-04-11T13:45:22.694Z,0.40
2023-04-11T13:47:49.350Z,0.68
2023-04-11T13:50:16.553Z,0.60
2023-04-11T13:52:43.149Z,0.80
2023-04-11T13:55:09.671Z,0.70
2023-04-11T13:57:36.290Z,0.57
2023-04-11T14:00:13.457Z,0.63
2023-04-11T14:02:41.135Z,0.95
2023-04-11T14:05:11.587Z,1.35
2023-04-11T14:07:38.219Z,1.13
2023-04-11T14:10:04.997Z,0.98
2023-04-11T14:12:31.672Z,1.58
2023-04-11T14:14:58.183Z,1.63
2023-04-11T14:17:24.985Z,1.52
2023-04-11T14:19:51.608Z,1.50
2023-04-11T14:22:18.182Z,1.20
2023-04-11T14:24:44.834Z,1.00
2023-04-11T14:27:11.620Z,1.58
2023-04-11T14:29:38.123Z,0.90
2023-04-11T14:32:06.112Z,1.73
2023-04-11T14:34:32.668Z,1.30
2023-04-11T14:36:59.248Z,1.88
2023-04-11T14:39:25.876Z,1.27
2023-04-11T14:41:52.416Z,1.30
2023-04-11T14:44:18.952Z,1.30
2023-04-11T14:46:45.895Z,1.60
2023-04-11T14:49:12.682Z,2.10
2023-04-11T14:51:39.302Z,1.40
2023-04-11T14:54:06.645Z,1.40
2023-04-11T14:56:33.268Z,1.63
2023-04-11T14:59:00.368Z,1.67
2023-04-11T15:01:27.214Z,2.15
2023-04-11T15:03:54.550Z,1.60
2023-04-11T15:06:21.601Z,1.60
2023-04-11T15:08:50.512Z,2.53
2023-04-11T15:11:17.785Z,1.70
2023-04-11T15:13:47.907Z,1.90
2023-04-11T15:16:14.617Z,1.88
2023-04-11T15:18:41.360Z,1.73
2023-04-11T15:21:08.467Z,1.70
2023-04-11T15:23:35.077Z,2.72
2023-04-11T15:26:05.585Z,1.88
2023-04-11T15:28:33.690Z,1.97
2023-04-11T15:31:01.050Z,1.77
2023-04-11T15:33:28.186Z,1.92
2023-04-11T15:35:55.154Z,1.98
2023-04-11T15:38:22.749Z,1.67
2023-04-11T15:40:54.167Z,2.03
2023-04-11T15:43:21.511Z,1.60
2023-04-11T15:45:48.378Z,2.10
2023-04-11T15:48:15.152Z,2.88
2023-04-11T15:50:42.723Z,2.20
2023-04-11T15:53:09.647Z,2.63
2023-04-11T15:55:40.059Z,2.33
2023-04-11T15:58:06.704Z,1.43
2023-04-11T16:00:36.417Z,5.47
2023-04-11T16:03:03.506Z,2.70
2023-04-11T16:05:31.365Z,2.83
2023-04-11T16:07:58.626Z,2.95
2023-04-11T16:10:25.630Z,2.15
2023-04-11T16:12:52.238Z,2.28
2023-04-11T16:15:19.155Z,2.13
2023-04-11T16:17:46.572Z,2.03
2023-04-11T16:20:18.375Z,2.30
2023-04-11T16:22:46.264Z,2.67
2023-04-11T16:25:14.660Z,1.92
2023-04-11T16:27:41.372Z,2.40
2023-04-11T16:30:09.538Z,1.98
2023-04-11T16:32:36.356Z,2.30
2023-04-11T16:35:03.120Z,3.47
2023-04-11T16:37:29.799Z,4.18
2023-04-11T16:39:56.844Z,2.60
2023-04-11T16:42:23.484Z,1.67
2023-04-11T16:44:50.005Z,1.63
2023-04-11T16:47:16.599Z,2.15
2023-04-11T16:49:44.403Z,2.53
2023-04-11T16:52:12.216Z,2.17
2023-04-11T16:54:38.813Z,2.67
2023-04-11T16:57:05.464Z,2.30
2023-04-11T16:59:32.063Z,1.85
2023-04-11T17:01:58.838Z,1.63
2023-04-11T17:04:25.993Z,1.73
2023-04-11T17:06:52.903Z,1.35
2023-04-11T17:09:19.441Z,1.50
2023-04-11T17:11:46.020Z,1.42
2023-04-11T17:14:12.607Z,1.20
2023-04-11T17:16:39.282Z,7.25
2023-04-11T17:19:06.254Z,2.58
2023-04-11T17:21:33.140Z,2.58
2023-04-11T17:23:59.958Z,1.80
2023-04-11T17:26:26.803Z,1.67
2023-04-11T17:28:53.535Z,1.90
2023-04-11T17:31:20.619Z,2.30
2023-04-11T17:33:47.250Z,2.05
2023-04-11T17:36:14.162Z,1.88
2023-04-11T17:38:42.160Z,2.22
2023-04-11T17:41:14.550Z,2.33
2023-04-11T17:43:42.571Z,2.40
2023-04-11T17:46:09.512Z,3.17
2023-04-11T17:48:36.596Z,2.10
2023-04-11T17:51:04.210Z,2.35
2023-04-11T17:53:30.931Z,2.08
2023-04-11T17:55:58.273Z,2.15
2023-04-11T17:58:28.723Z,2.75
2023-04-11T18:00:57.103Z,2.10
2023-04-11T18:03:25.761Z,2.75
2023-04-11T18:05:54.198Z,2.72
2023-04-11T18:08:26.031Z,2.63
2023-04-11T18:10:59.808Z,2.10
2023-04-11T18:13:27.505Z,2.10
2023-04-11T18:15:54.291Z,1.83
2023-04-11T18:18:20.877Z,2.10
2023-04-11T18:20:47.702Z,2.00
2023-04-11T18:23:14.228Z,2.33
2023-04-11T18:25:40.894Z,2.63
2023-04-11T18:28:07.434Z,1.60
2023-04-11T18:30:34.509Z,2.45
2023-04-11T18:33:01.565Z,2.78
2023-04-11T18:35:28.777Z,1.70
2023-04-11T18:37:55.969Z,2.15
2023-04-11T18:40:22.730Z,2.42
2023-04-11T18:42:50.593Z,2.78
2023-04-11T18:45:20.641Z,3.08
2023-04-11T18:47:47.627Z,2.45
2023-04-11T18:50:14.606Z,2.75
2023-04-11T18:52:41.822Z,2.42
2023-04-11T18:55:10.046Z,2.65
2023-04-11T18:57:38.246Z,3.22
2023-04-11T19:00:18.483Z,3.35
2023-04-11T19:02:46.672Z,3.33
2023-04-11T19:05:14.760Z,3.15
2023-04-11T19:07:42.758Z,2.95
2023-04-11T19:10:12.563Z,3.08
2023-04-11T19:12:39.633Z,2.35
2023-04-11T19:15:08.438Z,3.33
2023-04-11T19:17:36.239Z,2.80
2023-04-11T19:20:06.710Z,3.33
2023-04-11T19:22:34.244Z,3.13
2023-04-11T19:25:03.326Z,3.03
2023-04-11T19:27:29.935Z,3.42
2023-04-11T19:29:57.100Z,3.45
2023-04-11T19:32:23.809Z,3.78
2023-04-11T19:34:50.741Z,3.85
2023-04-11T19:37:19.298Z,3.42
2023-04-11T19:39:45.912Z,3.95
2023-04-11T19:42:12.600Z,3.55
2023-04-11T19:44:39.857Z,4.30
2023-04-11T19:47:06.594Z,3.25
2023-04-11T19:49:33.178Z,3.33
2023-04-11T19:51:59.757Z,5.10
2023-04-11T19:54:27.423Z,4.72
2023-04-11T19:56:54.188Z,4.47
2023-04-11T19:59:20.723Z,6.85
2023-04-11T20:01:47.483Z,4.25
2023-04-11T20:04:16.047Z,5.25
2023-04-11T20:06:44.292Z,4.80
2023-04-11T20:09:11.701Z,4.28
2023-04-11T20:11:43.667Z,4.78
2023-04-11T20:14:10.268Z,4.80
2023-04-11T20:16:37.127Z,3.90
2023-04-11T20:19:03.845Z,4.15
2023-04-11T20:21:30.650Z,4.63
2023-04-11T20:23:57.953Z,4.93
2023-04-11T20:26:24.629Z,4.70
2023-04-11T20:28:51.259Z,4.15
2023-04-11T20:31:17.866Z,4.32
2023-04-11T20:33:47.346Z,6.32
2023-04-11T20:36:15.571Z,7.05
2023-04-11T20:38:42.343Z,5.70
2023-04-11T20:41:08.977Z,5.22
2023-04-11T20:43:41.828Z,5.32
2023-04-11T20:46:08.804Z,6.22
2023-04-11T20:48:35.398Z,5.25
2023-04-11T20:51:02.175Z,6.18
2023-04-11T20:53:28.780Z,4.43
2023-04-11T20:55:55.588Z,5.35
2023-04-11T20:58:22.210Z,4.00
2023-04-11T21:00:48.785Z,6.10
2023-04-11T21:03:15.774Z,4.38
2023-04-11T21:05:46.724Z,6.03
2023-04-11T21:08:14.394Z,4.93
2023-04-11T21:10:41.213Z,5.68
2023-04-11T21:13:07.797Z,4.70
2023-04-11T21:15:34.882Z,4.20
2023-04-11T21:18:01.642Z,6.00
2023-04-11T21:20:28.765Z,4.53
2023-04-11T21:22:55.538Z,4.88
2023-04-11T21:25:24.139Z,5.40
2023-04-11T21:27:51.032Z,4.10
2023-04-11T21:30:20.669Z,4.25
2023-04-11T21:32:47.349Z,4.57
2023-04-11T21:35:14.056Z,5.22
2023-04-11T21:37:40.841Z,3.63
2023-04-11T21:40:07.917Z,4.20
2023-04-11T21:42:34.560Z,4.15
2023-04-11T21:45:01.300Z,4.28
2023-04-11T21:47:28.013Z,5.55
2023-04-11T21:49:54.759Z,3.42
2023-04-11T21:52:21.500Z,2.88
2023-04-11T21:54:48.095Z,2.65
2023-04-11T21:57:14.647Z,3.83
2023-04-11T21:59:41.243Z,3.10
2023-04-11T22:02:08.032Z,3.28
2023-04-11T22:04:41.310Z,4.50
2023-04-11T22:07:15.823Z,3.75
2023-04-11T22:09:46.886Z,5.07
2023-04-11T22:12:14.605Z,4.35
2023-04-11T22:14:42.639Z,5.18
2023-04-11T22:17:10.118Z,5.10
2023-04-11T22:19:36.633Z,5.15
2023-04-11T22:22:03.790Z,4.30
2023-04-11T22:24:31.146Z,5.72
2023-04-11T22:26:58.483Z,4.00
2023-04-11T22:29:30.436Z,5.15
2023-04-11T22:31:58.336Z,6.15
2023-04-11T22:34:25.694Z,7.25
2023-04-11T22:36:52.652Z,5.38
2023-04-11T22:39:20.230Z,4.93
2023-04-11T22:41:50.473Z,3.50
2023-04-11T22:44:17.757Z,4.63
2023-04-11T22:46:58.815Z,5.70
2023-04-11T22:49:25.520Z,4.40
2023-04-11T22:51:53.340Z,4.93
2023-04-11T22:54:19.941Z,3.75
2023-04-11T22:56:48.636Z,4.55
2023-04-11T22:59:15.267Z,5.60
2023-04-11T23:01:44.693Z,3.88
2023-04-11T23:04:11.617Z,4.45
2023-04-11T23:06:38.412Z,5.75
2023-04-11T23:09:05.722Z,6.85
2023-04-11T23:11:32.700Z,4.07
2023-04-11T23:14:00.969Z,4.30
2023-04-11T23:16:27.875Z,5.43
2023-04-11T23:18:55.456Z,6.75
2023-04-11T23:21:22.005Z,5.55
2023-04-11T23:23:48.767Z,5.50
2023-04-11T23:26:18.963Z,5.57
2023-04-11T23:28:46.590Z,6.80
2023-04-11T23:31:13.259Z,6.35
2023-04-11T23:33:39.852Z,5.57
2023-04-11T23:36:07.540Z,5.85
2023-04-11T23:38:34.296Z,4.90
2023-04-11T23:41:00.796Z,5.32
2023-04-11T23:43:27.354Z,7.53
2023-04-11T23:45:54.536Z,6.22
2023-04-11T23:48:21.679Z,5.68
2023-04-11T23:50:48.815Z,5.80
2023-04-11T23:53:16.045Z,5.80
2023-04-11T23:55:43.256Z,3.78
2023-04-11T23:58:09.889Z,6.95
